createdAt,value
2023-03-11T00:00:13.621Z,11.54
2023-03-11T00:02:41.138Z,11.54
2023-03-11T00:05:08.966Z,11.57
2023-03-11T00:07:37.769Z,11.59
2023-03-11T00:10:05.155Z,11.52
2023-03-11T00:12:32.407Z,11.48
2023-03-11T00:14:59.731Z,11.46
2023-03-11T00:17:27.105Z,11.61
2023-03-11T00:19:54.552Z,11.57
2023-03-11T00:22:21.869Z,11.41
2023-03-11T00:24:49.024Z,11.37
2023-03-11T00:27:16.246Z,11.27
2023-03-11T00:29:43.555Z,11.28
2023-03-11T00:32:10.825Z,11.23
2023-03-11T00:34:38.179Z,11.23
2023-03-11T00:37:05.551Z,11.19
2023-03-11T00:39:32.810Z,11.20
2023-03-11T00:42:00.154Z,11.17
2023-03-11T00:44:27.382Z,11.14
2023-03-11T00:46:54.646Z,11.17
2023-03-11T00:49:21.991Z,11.16
2023-03-11T00:51:49.320Z,11.13
2023-03-11T00:54:16.621Z,11.21
2023-03-11T00:56:43.965Z,11.30
2023-03-11T00:59:12.061Z,11.27
2023-03-11T01:01:39.355Z,11.26
2023-03-11T01:04:06.772Z,11.12
2023-03-11T01:06:44.881Z,11.11
2023-03-11T01:09:12.776Z,11.10
2023-03-11T01:11:39.969Z,11.06
2023-03-11T01:14:09.362Z,11.04
2023-03-11T01:16:37.871Z,10.99
2023-03-11T01:19:05.089Z,10.96
2023-03-11T01:21:32.600Z,10.91
2023-03-11T01:24:00.328Z,10.99
2023-03-11T01:26:27.819Z,11.04
2023-03-11T01:28:56.329Z,11.09
2023-03-11T01:31:23.832Z,10.86
2023-03-11T01:33:51.265Z,10.72
2023-03-11T01:36:18.512Z,10.69
2023-03-11T01:38:45.657Z,10.80
2023-03-11T01:41:13.008Z,10.75
2023-03-11T01:43:47.264Z,10.51
2023-03-11T01:46:26.058Z,10.49
2023-03-11T01:48:54.999Z,10.32
2023-03-11T01:51:37.283Z,10.31
2023-03-11T01:54:07.866Z,10.29
2023-03-11T01:56:36.123Z,10.24
2023-03-11T01:59:03.544Z,10.30
2023-03-11T02:01:30.867Z,10.23
2023-03-11T02:03:59.896Z,10.21
2023-03-11T02:06:27.265Z,10.19
2023-03-11T02:08:55.504Z,10.32
2023-03-11T02:11:25.084Z,10.11
2023-03-11T02:13:54.705Z,10.13
2023-03-11T02:16:22.102Z,10.11
2023-03-11T02:18:51.121Z,10.05
2023-03-11T02:21:26.995Z,9.97
2023-03-11T02:23:59.882Z,9.86
2023-03-11T02:26:36.519Z,9.81
2023-03-11T02:29:05.612Z,9.51
2023-03-11T02:31:33.751Z,9.18
2023-03-11T02:34:03.016Z,9.05
2023-03-11T02:36:32.028Z,8.91
2023-03-11T02:38:59.271Z,8.77
2023-03-11T02:41:27.669Z,8.66
2023-03-11T02:43:55.071Z,8.56
2023-03-11T02:46:24.045Z,8.41
2023-03-11T02:48:52.420Z,8.16
2023-03-11T02:51:19.792Z,8.10
2023-03-11T02:53:51.869Z,8.09
2023-03-11T02:56:19.301Z,8.14
2023-03-11T02:58:46.550Z,8.01
2023-03-11T03:01:14.106Z,7.96
2023-03-11T03:03:44.394Z,7.87
2023-03-11T03:06:12.298Z,7.83
2023-03-11T03:08:39.720Z,7.84
2023-03-11T03:11:07.203Z,7.79
2023-03-11T03:13:34.768Z,7.69
2023-03-11T03:16:02.510Z,7.85
2023-03-11T03:18:29.828Z,7.83
2023-03-11T03:20:57.250Z,7.73
2023-03-11T03:23:24.537Z,7.73
2023-03-11T03:25:51.870Z,7.69
2023-03-11T03:28:19.539Z,7.65
2023-03-11T03:30:47.069Z,7.94
2023-03-11T03:33:14.945Z,7.91
2023-03-11T03:35:43.897Z,8.08
2023-03-11T03:38:19.623Z,8.01
2023-03-11T03:40:48.658Z,8.05
2023-03-11T03:43:18.937Z,8.02
2023-03-11T03:45:55.086Z,7.92
2023-03-11T03:48:22.572Z,7.96
2023-03-11T03:50:49.966Z,8.09
2023-03-11T03:53:17.655Z,8.18
2023-03-11T03:55:45.304Z,8.23
2023-03-11T03:58:13.238Z,8.15
2023-03-11T04:00:40.627Z,8.11
2023-03-11T04:03:07.953Z,8.14
2023-03-11T04:05:43.545Z,7.94
2023-03-11T04:08:12.236Z,7.84
2023-03-11T04:10:39.460Z,7.83
2023-03-11T04:13:06.821Z,7.83
2023-03-11T04:15:34.529Z,7.82
2023-03-11T04:18:01.796Z,7.75
2023-03-11T04:20:29.202Z,7.84
2023-03-11T04:22:56.650Z,7.92
2023-03-11T04:25:24.971Z,7.89
2023-03-11T04:27:52.491Z,8.02
2023-03-11T04:30:20.976Z,7.87
2023-03-11T04:32:50.429Z,7.96
2023-03-11T04:35:18.685Z,7.86
2023-03-11T04:37:46.054Z,7.79
2023-03-11T04:40:13.762Z,7.63
2023-03-11T04:42:41.087Z,7.52
2023-03-11T04:45:08.783Z,7.65
2023-03-11T04:47:36.777Z,7.65
2023-03-11T04:50:06.013Z,7.57
2023-03-11T04:52:33.331Z,7.55
2023-03-11T04:55:00.487Z,7.50
2023-03-11T04:57:28.247Z,7.50
2023-03-11T04:59:57.110Z,7.65
2023-03-11T05:02:24.311Z,7.52
2023-03-11T05:04:55.510Z,7.50
2023-03-11T05:07:24.361Z,7.51
2023-03-11T05:09:52.211Z,7.45
2023-03-11T05:12:19.565Z,7.41
2023-03-11T05:14:50.750Z,7.39
2023-03-11T05:17:19.377Z,7.55
2023-03-11T05:19:48.925Z,7.67
2023-03-11T05:22:22.216Z,7.61
2023-03-11T05:24:49.759Z,7.56
2023-03-11T05:27:18.145Z,7.53
2023-03-11T05:29:48.336Z,7.61
2023-03-11T05:32:19.304Z,7.65
2023-03-11T05:34:48.670Z,7.60
2023-03-11T05:37:17.397Z,7.64
2023-03-11T05:39:46.387Z,7.61
2023-03-11T05:42:14.846Z,7.61
2023-03-11T05:44:42.264Z,7.53
2023-03-11T05:47:09.843Z,7.48
2023-03-11T05:49:37.521Z,7.52
2023-03-11T05:52:05.799Z,7.52
2023-03-11T05:54:34.094Z,7.54
2023-03-11T05:57:01.347Z,7.58
2023-03-11T05:59:29.264Z,7.62
2023-03-11T06:02:02.285Z,7.55
2023-03-11T06:04:29.972Z,7.46
2023-03-11T06:06:58.310Z,7.51
2023-03-11T06:09:29.121Z,7.58
2023-03-11T06:11:56.902Z,7.59
2023-03-11T06:14:31.722Z,7.58
2023-03-11T06:17:00.712Z,7.70
2023-03-11T06:19:28.632Z,7.78
2023-03-11T06:21:56.026Z,7.74
2023-03-11T06:24:23.343Z,7.64
2023-03-11T06:26:51.371Z,7.60
2023-03-11T06:29:19.139Z,7.65
2023-03-11T06:31:48.202Z,7.62
2023-03-11T06:34:15.712Z,7.77
2023-03-11T06:36:43.117Z,8.13
2023-03-11T06:39:12.378Z,8.50
2023-03-11T06:41:39.663Z,8.80
2023-03-11T06:44:09.383Z,9.40
2023-03-11T06:46:37.729Z,9.92
2023-03-11T06:49:05.517Z,10.22
2023-03-11T06:51:33.702Z,10.40
2023-03-11T06:54:01.155Z,10.53
2023-03-11T06:56:29.217Z,10.61
2023-03-11T06:59:01.644Z,10.67
2023-03-11T07:01:32.154Z,10.71
2023-03-11T07:04:01.761Z,10.77
2023-03-11T07:06:29.899Z,10.91
2023-03-11T07:09:05.938Z,11.02
2023-03-11T07:11:34.935Z,10.99
2023-03-11T07:14:08.990Z,10.75
2023-03-11T07:16:39.825Z,10.51
2023-03-11T07:19:13.031Z,10.39
2023-03-11T07:21:40.338Z,10.34
2023-03-11T07:24:07.663Z,10.31
2023-03-11T07:26:35.435Z,10.36
2023-03-11T07:29:02.658Z,10.43
2023-03-11T07:31:33.702Z,10.44
2023-03-11T07:34:02.949Z,10.60
2023-03-11T07:36:30.391Z,10.71
2023-03-11T07:39:04.415Z,10.80
2023-03-11T07:41:32.903Z,10.83
2023-03-11T07:44:00.850Z,10.86
2023-03-11T07:46:29.464Z,10.82
2023-03-11T07:48:56.872Z,10.86
2023-03-11T07:51:25.784Z,10.88
2023-03-11T07:53:54.400Z,10.92
2023-03-11T07:56:23.675Z,10.94
2023-03-11T07:58:51.373Z,10.95
2023-03-11T08:01:20.115Z,10.93
2023-03-11T08:03:48.171Z,10.95
2023-03-11T08:06:16.613Z,10.97
2023-03-11T08:08:44.035Z,10.98
2023-03-11T08:11:13.263Z,11.01
2023-03-11T08:13:41.285Z,11.06
2023-03-11T08:16:09.275Z,11.08
2023-03-11T08:18:36.777Z,11.15
2023-03-11T08:21:04.786Z,11.24
2023-03-11T08:23:32.049Z,11.27
2023-03-11T08:25:59.577Z,11.30
2023-03-11T08:28:26.792Z,11.29
2023-03-11T08:30:54.243Z,11.27
2023-03-11T08:33:21.664Z,11.24
2023-03-11T08:35:49.037Z,11.29
2023-03-11T08:38:16.941Z,11.44
2023-03-11T08:40:44.127Z,11.47
2023-03-11T08:43:13.408Z,11.48
2023-03-11T08:45:41.330Z,11.44
2023-03-11T08:48:10.233Z,11.54
2023-03-11T08:50:52.858Z,11.52
2023-03-11T08:53:22.196Z,11.64
2023-03-11T08:55:50.546Z,11.77
2023-03-11T08:58:18.380Z,11.96
2023-03-11T09:00:46.343Z,12.18
2023-03-11T09:03:13.686Z,12.68
2023-03-11T09:05:40.975Z,12.94
2023-03-11T09:08:08.305Z,13.27
2023-03-11T09:10:35.423Z,13.44
2023-03-11T09:13:02.781Z,13.53
2023-03-11T09:15:29.972Z,13.58
2023-03-11T09:17:57.241Z,13.89
2023-03-11T09:20:24.549Z,13.95
2023-03-11T09:22:51.872Z,13.94
2023-03-11T09:25:19.084Z,14.04
2023-03-11T09:27:57.335Z,14.07
2023-03-11T09:30:27.561Z,14.23
2023-03-11T09:32:54.821Z,14.55
2023-03-11T09:35:22.128Z,14.56
2023-03-11T09:37:49.796Z,14.67
2023-03-11T09:40:18.743Z,14.65
2023-03-11T09:42:54.354Z,14.83
2023-03-11T09:45:24.656Z,15.16
2023-03-11T09:48:10.703Z,15.31
2023-03-11T09:51:00.392Z,15.08
2023-03-11T09:53:30.640Z,15.25
2023-03-11T09:56:05.245Z,15.59
2023-03-11T09:59:01.944Z,15.70
2023-03-11T10:01:33.244Z,15.87
2023-03-11T10:04:20.653Z,15.88
2023-03-11T10:06:48.752Z,15.74
2023-03-11T10:09:29.231Z,15.77
2023-03-11T10:11:56.488Z,16.08
2023-03-11T10:14:35.813Z,16.10
2023-03-11T10:17:14.475Z,15.89
2023-03-11T10:19:50.025Z,15.62
2023-03-11T10:22:35.554Z,15.56
2023-03-11T10:25:02.816Z,15.79
2023-03-11T10:27:33.061Z,15.92
2023-03-11T10:30:06.470Z,15.83
2023-03-11T10:32:59.755Z,15.82
2023-03-11T10:35:41.446Z,15.68
2023-03-11T10:38:15.473Z,15.41
2023-03-11T10:40:44.672Z,15.29
2023-03-11T10:43:14.625Z,15.21
2023-03-11T10:45:44.769Z,15.28
2023-03-11T10:48:13.180Z,15.41
2023-03-11T10:50:47.327Z,15.31
2023-03-11T10:53:16.204Z,15.17
2023-03-11T10:55:51.297Z,15.00
2023-03-11T10:58:20.497Z,15.08
2023-03-11T11:00:59.704Z,15.10
2023-03-11T11:03:27.263Z,15.05
2023-03-11T11:06:02.304Z,15.10
2023-03-11T11:08:29.618Z,15.14
2023-03-11T11:10:58.542Z,15.09
2023-03-11T11:13:27.211Z,14.99
2023-03-11T11:16:14.670Z,15.05
2023-03-11T11:18:49.956Z,15.45
2023-03-11T11:21:27.643Z,15.82
2023-03-11T11:24:04.096Z,16.20
2023-03-11T11:26:31.409Z,16.05
2023-03-11T11:29:08.419Z,15.72
2023-03-11T11:31:36.597Z,15.60
2023-03-11T11:34:04.248Z,15.77
2023-03-11T11:36:34.700Z,15.93
2023-03-11T11:39:05.041Z,16.10
2023-03-11T11:41:35.486Z,16.29
2023-03-11T11:44:06.838Z,16.34
2023-03-11T11:46:37.141Z,16.50
2023-03-11T11:49:16.509Z,16.70
2023-03-11T11:51:43.984Z,16.62
2023-03-11T11:54:11.096Z,16.69
2023-03-11T11:56:40.696Z,16.64
2023-03-11T11:59:17.456Z,16.59
2023-03-11T12:02:06.618Z,16.50
2023-03-11T12:05:09.396Z,16.69
2023-03-11T12:08:01.387Z,16.83
2023-03-11T12:10:58.161Z,16.69
2023-03-11T12:13:47.500Z,16.71
2023-03-11T12:16:27.780Z,16.86
2023-03-11T12:19:02.578Z,16.93
2023-03-11T12:21:32.940Z,16.75
2023-03-11T12:24:18.604Z,16.42
2023-03-11T12:26:47.913Z,16.75
2023-03-11T12:29:17.896Z,16.92
2023-03-11T12:31:45.444Z,17.04
2023-03-11T12:34:14.625Z,17.21
2023-03-11T12:36:43.968Z,17.46
2023-03-11T12:39:23.615Z,17.39
2023-03-11T12:42:20.259Z,17.30
2023-03-11T12:44:48.384Z,17.30
2023-03-11T12:47:15.472Z,17.45
2023-03-11T12:49:44.094Z,17.38
2023-03-11T12:52:11.675Z,17.30
2023-03-11T12:54:41.918Z,17.50
2023-03-11T12:57:21.466Z,17.50
2023-03-11T13:00:12.232Z,17.82
2023-03-11T13:02:39.527Z,17.89
2023-03-11T13:05:09.682Z,17.65
2023-03-11T13:07:39.981Z,17.50
2023-03-11T13:10:07.203Z,17.43
2023-03-11T13:12:46.964Z,17.39
2023-03-11T13:15:20.333Z,17.42
2023-03-11T13:17:59.931Z,17.34
2023-03-11T13:20:39.360Z,17.41
2023-03-11T13:23:12.667Z,17.45
2023-03-11T13:25:40.046Z,17.58
2023-03-11T13:28:08.103Z,17.84
2023-03-11T13:30:40.739Z,17.57
2023-03-11T13:33:17.386Z,17.03
2023-03-11T13:35:44.720Z,17.58
2023-03-11T13:38:11.994Z,17.60
2023-03-11T13:40:46.425Z,17.60
2023-03-11T13:43:21.205Z,17.61
2023-03-11T13:45:52.679Z,17.84
2023-03-11T13:48:28.994Z,17.67
2023-03-11T13:51:05.424Z,17.40
2023-03-11T13:53:36.036Z,17.56
2023-03-11T13:56:04.513Z,17.67
2023-03-11T13:58:31.821Z,17.60
2023-03-11T14:01:00.416Z,17.52
2023-03-11T14:03:36.528Z,17.69
2023-03-11T14:06:06.777Z,17.77
2023-03-11T14:08:38.324Z,18.06
2023-03-11T14:11:09.955Z,17.79
2023-03-11T14:13:41.733Z,17.58
2023-03-11T14:16:17.446Z,17.67
2023-03-11T14:18:48.749Z,17.69
2023-03-11T14:21:20.781Z,17.71
2023-03-11T14:23:49.652Z,17.94
2023-03-11T14:26:26.418Z,17.84
2023-03-11T14:28:55.482Z,17.99
2023-03-11T14:31:36.525Z,18.07
2023-03-11T14:34:07.643Z,17.92
2023-03-11T14:36:48.607Z,18.00
2023-03-11T14:39:22.141Z,18.03
2023-03-11T14:41:50.508Z,18.05
2023-03-11T14:44:17.889Z,18.13
2023-03-11T14:46:46.693Z,18.13
2023-03-11T14:49:17.882Z,18.07
2023-03-11T14:51:45.610Z,18.11
2023-03-11T14:54:19.793Z,18.01
2023-03-11T14:56:51.234Z,18.06
2023-03-11T14:59:18.918Z,18.11
2023-03-11T15:01:47.088Z,18.19
2023-03-11T15:04:32.927Z,18.09
2023-03-11T15:07:01.297Z,17.94
2023-03-11T15:09:29.376Z,18.00
2023-03-11T15:12:01.042Z,17.99
2023-03-11T15:14:32.756Z,17.76
2023-03-11T15:17:11.700Z,17.94
2023-03-11T15:19:40.636Z,17.80
2023-03-11T15:22:25.336Z,17.75
2023-03-11T15:24:53.954Z,17.79
2023-03-11T15:27:23.966Z,17.74
2023-03-11T15:29:52.766Z,17.80
2023-03-11T15:32:29.540Z,17.82
2023-03-11T15:35:23.467Z,17.75
2023-03-11T15:37:52.305Z,17.82
2023-03-11T15:40:42.467Z,17.66
2023-03-11T15:43:15.115Z,17.37
2023-03-11T15:45:43.207Z,17.42
2023-03-11T15:48:12.264Z,17.22
2023-03-11T15:50:55.078Z,17.29
2023-03-11T15:53:24.218Z,17.27
2023-03-11T15:56:06.608Z,17.18
2023-03-11T15:58:35.875Z,17.09
2023-03-11T16:01:04.096Z,17.05
2023-03-11T16:03:31.786Z,17.05
2023-03-11T16:05:59.187Z,17.01
2023-03-11T16:08:26.641Z,16.87
2023-03-11T16:10:54.171Z,16.89
2023-03-11T16:13:21.825Z,16.83
2023-03-11T16:15:49.332Z,16.77
2023-03-11T16:18:16.959Z,16.72
2023-03-11T16:20:48.124Z,16.68
2023-03-11T16:23:51.597Z,16.60
2023-03-11T16:26:22.615Z,16.58
2023-03-11T16:28:50.143Z,16.51
2023-03-11T16:31:17.772Z,16.42
2023-03-11T16:33:45.507Z,16.44
2023-03-11T16:36:13.471Z,16.43
2023-03-11T16:38:49.745Z,16.42
2023-03-11T16:41:17.496Z,16.37
2023-03-11T16:43:44.987Z,16.32
2023-03-11T16:46:12.284Z,16.19
2023-03-11T16:48:39.505Z,16.08
2023-03-11T16:51:06.839Z,16.05
2023-03-11T16:53:34.206Z,16.10
2023-03-11T16:56:01.624Z,16.01
2023-03-11T16:58:28.956Z,15.87
2023-03-11T17:00:56.262Z,15.76
2023-03-11T17:03:24.844Z,15.67
2023-03-11T17:06:00.496Z,15.65
2023-03-11T17:08:27.776Z,15.62
2023-03-11T17:10:54.986Z,15.50
2023-03-11T17:13:22.277Z,15.46
2023-03-11T17:16:02.517Z,15.35
2023-03-11T17:18:30.212Z,15.30
2023-03-11T17:20:57.930Z,15.34
2023-03-11T17:23:25.561Z,15.21
2023-03-11T17:25:53.105Z,15.11
2023-03-11T17:28:20.554Z,15.06
2023-03-11T17:30:48.411Z,15.04
2023-03-11T17:33:16.150Z,15.03
2023-03-11T17:35:44.286Z,14.91
2023-03-11T17:38:11.976Z,14.92
2023-03-11T17:40:39.853Z,14.84
2023-03-11T17:43:07.782Z,14.85
2023-03-11T17:45:38.092Z,14.74
2023-03-11T17:48:05.952Z,14.67
2023-03-11T17:50:38.712Z,14.65
2023-03-11T17:53:06.830Z,14.58
2023-03-11T17:55:34.675Z,14.69
2023-03-11T17:58:02.112Z,14.65
2023-03-11T18:00:29.465Z,14.70
2023-03-11T18:02:56.716Z,14.75
2023-03-11T18:05:23.996Z,14.73
2023-03-11T18:07:51.337Z,14.65
2023-03-11T18:10:18.690Z,14.62
2023-03-11T18:12:46.624Z,14.55
2023-03-11T18:15:18.904Z,14.67
2023-03-11T18:17:46.859Z,14.62
2023-03-11T18:20:14.821Z,14.72
2023-03-11T18:22:46.173Z,14.69
2023-03-11T18:25:14.043Z,14.70
2023-03-11T18:27:41.392Z,14.71
2023-03-11T18:30:11.217Z,14.72
2023-03-11T18:32:40.305Z,14.68
2023-03-11T18:35:07.973Z,14.63
2023-03-11T18:37:35.338Z,14.47
2023-03-11T18:40:03.282Z,14.39
2023-03-11T18:42:30.547Z,14.18
2023-03-11T18:44:57.856Z,14.04
2023-03-11T18:47:25.042Z,14.10
2023-03-11T18:49:52.864Z,13.83
2023-03-11T18:52:20.590Z,13.87
2023-03-11T18:54:47.920Z,13.80
2023-03-11T18:57:15.159Z,13.68
2023-03-11T18:59:42.450Z,13.66
2023-03-11T19:02:10.480Z,13.70
2023-03-11T19:04:38.093Z,13.66
2023-03-11T19:07:05.431Z,13.44
2023-03-11T19:09:32.952Z,13.57
2023-03-11T19:12:00.101Z,13.42
2023-03-11T19:14:27.361Z,13.39
2023-03-11T19:16:54.832Z,13.20
2023-03-11T19:19:22.137Z,13.09
2023-03-11T19:21:49.432Z,13.11
2023-03-11T19:24:16.652Z,13.10
2023-03-11T19:26:46.002Z,13.07
2023-03-11T19:29:14.362Z,13.14
2023-03-11T19:31:43.618Z,13.35
2023-03-11T19:34:11.548Z,13.50
2023-03-11T19:36:39.561Z,13.55
2023-03-11T19:39:07.072Z,13.61
2023-03-11T19:41:34.784Z,13.61
2023-03-11T19:44:04.266Z,13.66
2023-03-11T19:46:34.760Z,13.60
2023-03-11T19:49:02.744Z,13.58
2023-03-11T19:51:38.755Z,13.50
2023-03-11T19:54:10.380Z,13.55
2023-03-11T19:56:39.412Z,13.47
2023-03-11T19:59:07.534Z,13.42
2023-03-11T20:01:35.155Z,13.39
2023-03-11T20:04:02.757Z,13.25
2023-03-11T20:06:30.709Z,13.23
2023-03-11T20:08:58.412Z,13.11
2023-03-11T20:11:26.089Z,13.07
2023-03-11T20:13:54.283Z,12.98
2023-03-11T20:16:22.618Z,12.86
2023-03-11T20:18:50.988Z,12.87
2023-03-11T20:21:19.405Z,12.86
2023-03-11T20:23:49.364Z,12.80
2023-03-11T20:26:19.400Z,12.79
2023-03-11T20:28:47.296Z,12.77
2023-03-11T20:31:17.207Z,12.69
2023-03-11T20:33:44.860Z,12.63
2023-03-11T20:36:14.138Z,12.66
2023-03-11T20:38:42.143Z,12.59
2023-03-11T20:41:10.857Z,12.51
2023-03-11T20:43:39.124Z,12.49
2023-03-11T20:46:07.831Z,12.44
2023-03-11T20:48:35.842Z,12.40
2023-03-11T20:51:04.269Z,12.36
2023-03-11T20:53:31.934Z,12.32
2023-03-11T20:56:00.129Z,12.40
2023-03-11T20:58:27.680Z,12.27
2023-03-11T21:00:55.077Z,12.20
2023-03-11T21:03:22.729Z,12.11
2023-03-11T21:05:50.498Z,12.11
2023-03-11T21:08:18.059Z,12.14
2023-03-11T21:10:45.301Z,12.11
2023-03-11T21:13:12.793Z,12.03
2023-03-11T21:15:40.142Z,12.04
2023-03-11T21:18:07.496Z,11.94
2023-03-11T21:20:34.804Z,11.88
2023-03-11T21:23:02.064Z,11.95
2023-03-11T21:25:31.404Z,11.93
2023-03-11T21:27:58.746Z,11.93
2023-03-11T21:30:25.988Z,11.91
2023-03-11T21:32:53.473Z,11.90
2023-03-11T21:35:20.846Z,11.90
2023-03-11T21:37:48.176Z,11.90
2023-03-11T21:40:15.674Z,11.83
2023-03-11T21:42:42.912Z,11.80
2023-03-11T21:45:10.458Z,11.81
2023-03-11T21:47:38.016Z,11.78
2023-03-11T21:50:06.145Z,11.82
2023-03-11T21:52:33.595Z,11.76
2023-03-11T21:55:00.912Z,11.76
2023-03-11T21:57:28.183Z,11.62
2023-03-11T21:59:55.525Z,11.63
2023-03-11T22:02:23.028Z,11.63
2023-03-11T22:04:50.854Z,11.66
2023-03-11T22:07:18.227Z,11.73
2023-03-11T22:09:45.787Z,11.75
2023-03-11T22:12:13.519Z,11.71
2023-03-11T22:14:41.070Z,11.66
2023-03-11T22:17:08.409Z,11.67
2023-03-11T22:19:35.842Z,11.64
2023-03-11T22:22:03.263Z,11.66
2023-03-11T22:24:30.464Z,11.61
2023-03-11T22:26:57.755Z,11.65
2023-03-11T22:29:25.198Z,11.62
2023-03-11T22:31:52.503Z,11.66
2023-03-11T22:34:19.788Z,11.65
2023-03-11T22:36:47.052Z,11.57
2023-03-11T22:39:14.262Z,11.62
2023-03-11T22:41:41.594Z,11.71
2023-03-11T22:44:08.855Z,11.60
2023-03-11T22:46:36.181Z,11.68
2023-03-11T22:49:03.380Z,11.69
2023-03-11T22:51:30.695Z,11.69
2023-03-11T22:53:57.987Z,11.67
2023-03-11T22:56:26.191Z,11.64
2023-03-11T22:58:53.420Z,11.58
2023-03-11T23:01:20.657Z,11.55
2023-03-11T23:03:47.856Z,11.61
2023-03-11T23:06:16.781Z,11.55
2023-03-11T23:08:44.504Z,11.58
2023-03-11T23:11:13.112Z,11.53
2023-03-11T23:13:40.930Z,11.58
2023-03-11T23:16:11.559Z,11.57
2023-03-11T23:18:38.763Z,11.54
2023-03-11T23:21:13.338Z,11.62
2023-03-11T23:23:40.632Z,11.57
2023-03-11T23:26:08.744Z,11.61
2023-03-11T23:28:36.017Z,11.53
2023-03-11T23:31:04.457Z,11.55
2023-03-11T23:33:31.696Z,11.47
2023-03-11T23:36:06.647Z,11.44
2023-03-11T23:38:34.308Z,11.49
2023-03-11T23:41:01.648Z,11.43
2023-03-11T23:43:28.855Z,11.36
2023-03-11T23:45:56.198Z,11.42
2023-03-11T23:48:23.403Z,11.47
2023-03-11T23:50:51.205Z,11.45
2023-03-11T23:53:21.376Z,11.39
2023-03-11T23:55:48.813Z,11.37
2023-03-11T23:58:16.112Z,11.27
